Time;durP1;ratioP1;P1;durP2;ratioP2;P2;SDS_P1;SDS_P2;PMS_P1;PMS_P2;Temp;Humidity;BMP_temperature;BMP_pressure;BME280_temperature;BME280_humidity;BME280_pressure;Samples;Min_cycle;Max_cycle;Signal;HPM_P1;HPM_P2
2024/01/12 00:00:29;;;;;;;64.05;31.25;;;0.50;99.90;;;;;;4873259;29;20036;-42
2024/01/12 00:02:54;;;;;;;61.65;29.80;;;0.50;99.90;;;;;;4866704;29;20436;-41
2024/01/12 00:05:20;;;;;;;57.70;30.80;;;0.50;99.90;;;;;;4865582;29;20200;-42
2024/01/12 00:07:46;;;;;;;60.35;30.50;;;0.50;99.90;;;;;;4868898;29;20037;-41
2024/01/12 00:10:11;;;;;;;65.07;31.52;;;0.50;99.90;;;;;;4867256;29;20067;-41
2024/01/12 00:12:37;;;;;;;58.65;30.63;;;0.50;99.90;;;;;;4870540;29;20064;-41
2024/01/12 00:15:05;;;;;;;63.35;31.02;;;0.50;99.90;;;;;;4869851;29;20564;-41
2024/01/12 00:17:30;;;;;;;67.00;32.45;;;0.60;99.90;;;;;;4869906;29;20053;-43
2024/01/12 00:19:56;;;;;;;69.05;31.73;;;0.60;99.90;;;;;;4866976;29;20060;-41
2024/01/12 00:22:21;;;;;;;55.72;29.50;;;0.60;99.90;;;;;;4868427;29;20048;-41
2024/01/12 00:24:48;;;;;;;66.68;31.77;;;0.60;99.90;;;;;;4870544;29;20091;-43
2024/01/12 00:27:14;;;;;;;66.30;30.88;;;0.60;99.90;;;;;;4870388;29;20049;-43
2024/01/12 00:29:40;;;;;;;62.83;31.10;;;0.60;99.90;;;;;;4875216;29;20051;-41
2024/01/12 00:32:06;;;;;;;58.47;30.08;;;0.60;99.90;;;;;;4869429;29;20412;-42
2024/01/12 00:34:32;;;;;;;60.03;30.90;;;0.60;99.90;;;;;;4875546;29;20110;-41
2024/01/12 00:36:58;;;;;;;60.15;29.88;;;0.60;99.90;;;;;;4870345;29;20104;-42
2024/01/12 00:39:23;;;;;;;63.97;30.52;;;0.60;99.90;;;;;;4871185;29;20136;-43
2024/01/12 00:41:52;;;;;;;62.85;30.63;;;0.60;99.90;;;;;;4867437;29;20044;-41
2024/01/12 00:44:18;;;;;;;55.70;29.17;;;0.70;99.90;;;;;;4873986;29;20084;-42
2024/01/12 00:46:50;;;;;;;55.67;28.30;;;0.70;99.90;;;;;;4871454;29;20715;-41
2024/01/12 00:49:20;;;;;;;60.63;28.80;;;0.60;99.90;;;;;;4874124;29;20449;-41
2024/01/12 00:51:46;;;;;;;65.00;30.20;;;0.60;99.90;;;;;;4878953;29;20055;-41
2024/01/12 00:54:11;;;;;;;57.05;28.95;;;0.60;99.90;;;;;;4872667;29;20119;-42
2024/01/12 00:56:37;;;;;;;64.28;30.13;;;0.70;99.90;;;;;;4858839;29;20089;-41
2024/01/12 00:59:04;;;;;;;58.45;29.73;;;0.70;99.90;;;;;;4876150;29;20041;-41
2024/01/12 01:01:32;;;;;;;61.40;29.60;;;0.60;99.90;;;;;;4875028;29;20079;-41
2024/01/12 01:03:59;;;;;;;53.70;27.50;;;0.60;99.90;;;;;;4872218;29;20056;-42
2024/01/12 01:06:25;;;;;;;55.78;28.08;;;0.60;99.90;;;;;;4872211;29;20194;-41
2024/01/12 01:08:51;;;;;;;61.38;29.15;;;0.60;99.90;;;;;;4872687;29;20141;-41
2024/01/12 01:11:17;;;;;;;58.08;28.45;;;0.60;99.90;;;;;;4871817;29;20056;-42
2024/01/12 01:13:42;;;;;;;60.88;28.60;;;0.60;99.90;;;;;;4852684;29;20041;-42
2024/01/12 01:16:09;;;;;;;56.33;29.30;;;0.60;99.90;;;;;;4867318;29;20476;-43
2024/01/12 01:18:34;;;;;;;55.83;29.15;;;0.60;99.90;;;;;;4870785;29;20053;-41
2024/01/12 01:21:00;;;;;;;50.05;27.00;;;0.70;99.90;;;;;;4873966;29;20481;-43
2024/01/12 01:23:25;;;;;;;55.13;27.83;;;0.60;99.90;;;;;;4873833;29;20037;-42
2024/01/12 01:25:51;;;;;;;55.67;28.17;;;0.60;99.90;;;;;;4878348;29;20465;-43
2024/01/12 01:28:17;;;;;;;58.40;28.50;;;0.70;99.90;;;;;;4869469;29;20053;-41
2024/01/12 01:30:42;;;;;;;55.72;28.75;;;0.60;99.90;;;;;;4877400;29;20052;-44
2024/01/12 01:33:08;;;;;;;59.97;28.70;;;0.70;99.90;;;;;;4872385;29;20185;-41
2024/01/12 01:35:34;;;;;;;52.90;26.65;;;0.60;99.90;;;;;;4866235;29;20037;-41
2024/01/12 01:37:59;;;;;;;54.28;28.35;;;0.70;99.90;;;;;;4863971;29;20662;-43
2024/01/12 01:40:25;;;;;;;53.83;26.00;;;;;;;;;;4862621;29;20041;-43
2024/01/12 01:42:51;;;;;;;54.72;27.35;;;0.90;99.90;;;;;;4863070;29;20038;-43
2024/01/12 01:45:17;;;;;;;54.35;27.90;;;0.90;99.90;;;;;;4861285;29;20524;-41
2024/01/12 01:47:43;;;;;;;55.17;26.50;;;0.70;99.90;;;;;;4860482;29;20053;-41
2024/01/12 01:50:13;;;;;;;49.15;25.63;;;;;;;;;;4861893;29;20060;-41
2024/01/12 01:52:39;;;;;;;53.22;25.88;;;0.80;99.90;;;;;;4859745;29;20121;-42
2024/01/12 01:55:05;;;;;;;51.15;24.30;;;0.80;99.90;;;;;;4866418;29;20041;-41
2024/01/12 01:57:31;;;;;;;44.05;23.73;;;0.80;99.90;;;;;;4867106;29;20051;-41
2024/01/12 01:59:57;;;;;;;45.92;24.42;;;0.80;99.90;;;;;;4863846;29;20136;-41
2024/01/12 02:02:24;;;;;;;44.10;24.08;;;0.90;99.90;;;;;;4863947;29;20131;-43
2024/01/12 02:04:52;;;;;;;42.28;21.85;;;0.90;99.90;;;;;;4865302;29;20044;-41
2024/01/12 02:07:20;;;;;;;44.38;23.30;;;0.90;99.90;;;;;;4868360;29;20155;-41
2024/01/12 02:09:47;;;;;;;46.50;24.13;;;0.90;99.90;;;;;;4875180;29;20539;-41
2024/01/12 02:12:12;;;;;;;43.65;22.85;;;0.90;99.90;;;;;;4869826;29;20128;-42
2024/01/12 02:14:38;;;;;;;47.13;23.33;;;0.90;99.90;;;;;;4869436;29;20123;-42
2024/01/12 02:17:04;;;;;;;46.45;22.98;;;1.00;99.90;;;;;;4871699;29;20116;-43
2024/01/12 02:19:29;;;;;;;47.35;21.48;;;1.00;99.90;;;;;;4873117;29;20455;-41
2024/01/12 02:21:55;;;;;;;47.72;21.50;;;1.00;99.90;;;;;;4871392;29;20041;-42
2024/01/12 02:24:20;;;;;;;41.13;21.05;;;1.00;99.90;;;;;;4867368;29;20147;-44
2024/01/12 02:26:46;;;;;;;43.00;19.98;;;1.00;99.90;;;;;;4873664;29;20368;-43
2024/01/12 02:29:12;;;;;;;38.55;19.77;;;1.00;99.90;;;;;;4870834;29;20060;-41
2024/01/12 02:31:39;;;;;;;39.65;19.13;;;1.10;99.90;;;;;;4874346;29;20462;-42
2024/01/12 02:34:04;;;;;;;42.30;20.00;;;1.10;99.90;;;;;;4869506;29;20115;-41
2024/01/12 02:36:30;;;;;;;33.85;17.73;;;1.20;99.90;;;;;;4872050;29;20045;-42
2024/01/12 02:38:56;;;;;;;42.47;17.48;;;1.20;99.90;;;;;;4871909;29;20041;-42
2024/01/12 02:41:21;;;;;;;40.25;17.98;;;1.20;99.90;;;;;;4868951;29;20041;-42
2024/01/12 02:43:47;;;;;;;41.85;18.77;;;1.20;99.90;;;;;;4871197;29;20037;-42
2024/01/12 02:46:13;;;;;;;33.38;17.33;;;1.20;99.90;;;;;;4872891;29;20061;-41
2024/01/12 02:48:39;;;;;;;34.13;16.77;;;1.20;99.90;;;;;;4870927;29;20048;-41
2024/01/12 02:51:05;;;;;;;34.08;15.73;;;1.20;99.90;;;;;;4869991;29;20044;-43
2024/01/12 02:53:31;;;;;;;31.48;14.63;;;1.20;99.90;;;;;;4871470;29;20405;-42
2024/01/12 02:55:57;;;;;;;29.92;13.38;;;1.20;99.90;;;;;;4873277;29;20096;-42
2024/01/12 02:58:22;;;;;;;29.27;13.43;;;1.20;99.90;;;;;;4879516;29;20037;-42
2024/01/12 03:00:48;;;;;;;30.83;13.35;;;1.30;99.90;;;;;;4859334;29;20037;-42
2024/01/12 03:03:13;;;;;;;30.90;13.25;;;1.30;99.90;;;;;;4876458;29;20381;-42
2024/01/12 03:05:39;;;;;;;30.67;12.90;;;1.20;99.90;;;;;;4874979;29;20052;-42
2024/01/12 03:08:05;;;;;;;25.98;12.63;;;1.30;99.90;;;;;;4875952;29;20045;-42
2024/01/12 03:10:30;;;;;;;27.77;12.63;;;1.40;99.90;;;;;;4875077;29;20080;-41
2024/01/12 03:12:56;;;;;;;29.70;13.35;;;1.40;99.90;;;;;;4880871;29;20037;-42
2024/01/12 03:15:22;;;;;;;29.10;13.23;;;1.40;99.90;;;;;;4856758;29;20049;-42
2024/01/12 03:17:47;;;;;;;24.48;12.15;;;1.50;99.90;;;;;;4872678;29;20400;-42
2024/01/12 03:20:13;;;;;;;27.88;11.98;;;1.60;99.90;;;;;;4876443;29;20519;-42
2024/01/12 03:22:39;;;;;;;24.42;12.32;;;1.60;99.90;;;;;;4872294;29;20072;-41
2024/01/12 03:25:05;;;;;;;24.40;12.52;;;1.60;99.90;;;;;;4872302;29;20140;-41
2024/01/12 03:27:32;;;;;;;24.05;11.60;;;1.60;99.90;;;;;;4873361;29;20451;-44
2024/01/12 03:29:57;;;;;;;26.38;11.57;;;1.60;99.90;;;;;;4871255;29;20045;-42
2024/01/12 03:32:23;;;;;;;19.27;10.98;;;1.60;99.90;;;;;;4854933;29;20055;-42
2024/01/12 03:34:49;;;;;;;26.70;12.05;;;1.60;99.90;;;;;;4870789;29;20033;-42
2024/01/12 03:37:14;;;;;;;26.25;10.90;;;1.60;99.90;;;;;;4875790;29;20480;-41
2024/01/12 03:39:40;;;;;;;21.95;10.40;;;1.60;99.90;;;;;;4876907;29;20151;-42
2024/01/12 03:42:06;;;;;;;19.90;8.10;;;1.60;99.90;;;;;;4872101;29;20488;-43
2024/01/12 03:44:32;;;;;;;21.75;8.95;;;1.80;99.90;;;;;;4872023;29;20098;-41
2024/01/12 03:46:57;;;;;;;24.15;10.13;;;1.70;99.90;;;;;;4879389;29;20500;-43
2024/01/12 03:49:23;;;;;;;16.58;9.32;;;1.70;99.90;;;;;;4876192;29;20041;-42
2024/01/12 03:51:53;;;;;;;21.88;8.68;;;1.70;99.90;;;;;;4876822;29;20057;-41
2024/01/12 03:54:20;;;;;;;22.10;9.93;;;1.70;99.90;;;;;;4879402;29;20037;-41
2024/01/12 03:56:46;;;;;;;18.55;10.10;;;1.70;99.90;;;;;;4872584;29;20053;-43
2024/01/12 03:59:11;;;;;;;22.02;9.30;;;1.70;99.90;;;;;;4869542;29;20060;-42
2024/01/12 04:01:41;;;;;;;18.25;9.02;;;1.60;99.90;;;;;;4875528;29;20040;-42
2024/01/12 04:04:07;;;;;;;20.67;9.70;;;1.60;99.90;;;;;;4872000;29;20984;-43
2024/01/12 04:06:32;;;;;;;21.00;9.95;;;1.60;99.90;;;;;;4862524;29;20056;-41
2024/01/12 04:08:58;;;;;;;18.17;8.95;;;1.60;99.90;;;;;;4874860;29;20070;-41
2024/01/12 04:11:24;;;;;;;14.60;8.50;;;1.60;99.90;;;;;;4873335;29;20041;-42
2024/01/12 04:13:50;;;;;;;14.02;9.32;;;1.50;99.90;;;;;;4877079;29;20068;-43
2024/01/12 04:16:15;;;;;;;21.52;9.48;;;1.60;99.90;;;;;;4872932;29;20500;-43
2024/01/12 04:18:41;;;;;;;21.45;8.45;;;1.50;99.90;;;;;;4873320;29;20040;-43
2024/01/12 04:21:07;;;;;;;16.95;8.13;;;1.50;99.90;;;;;;4870774;29;20449;-42
2024/01/12 04:23:32;;;;;;;20.48;9.60;;;1.50;99.90;;;;;;4875658;29;20445;-43
2024/01/12 04:25:58;;;;;;;19.23;9.43;;;1.60;99.90;;;;;;4873875;29;20250;-42
2024/01/12 04:28:23;;;;;;;19.98;9.45;;;1.60;99.90;;;;;;4880528;29;20511;-42
2024/01/12 04:30:49;;;;;;;19.90;9.10;;;1.60;99.90;;;;;;4870912;29;20037;-44
2024/01/12 04:33:14;;;;;;;18.95;8.20;;;1.60;99.90;;;;;;4876786;29;20397;-41
2024/01/12 04:35:40;;;;;;;16.60;8.23;;;1.50;99.90;;;;;;4876905;29;20128;-42
2024/01/12 04:38:06;;;;;;;14.52;8.15;;;1.50;99.90;;;;;;4869678;29;20104;-42
2024/01/12 04:40:31;;;;;;;17.30;7.72;;;1.60;99.90;;;;;;4870259;29;20049;-42
2024/01/12 04:42:57;;;;;;;13.23;7.88;;;1.60;99.90;;;;;;4869135;29;20420;-42
2024/01/12 04:45:23;;;;;;;17.48;8.10;;;1.60;99.90;;;;;;4855010;29;20041;-43
2024/01/12 04:47:48;;;;;;;14.40;8.63;;;1.50;99.90;;;;;;4872712;29;20125;-42
2024/01/12 04:50:14;;;;;;;17.15;8.00;;;1.50;99.90;;;;;;4873583;29;20136;-44
2024/01/12 04:52:39;;;;;;;22.67;8.68;;;1.50;99.90;;;;;;4869347;29;20067;-42
2024/01/12 04:55:05;;;;;;;17.83;7.85;;;1.50;99.90;;;;;;4867227;29;20106;-42
2024/01/12 04:57:31;;;;;;;20.23;8.15;;;1.50;99.90;;;;;;4872884;29;20128;-42
2024/01/12 04:59:56;;;;;;;21.40;8.30;;;1.50;99.90;;;;;;4876691;29;20360;-41
2024/01/12 05:02:22;;;;;;;20.15;8.43;;;1.50;99.90;;;;;;4871016;29;21130;-41
2024/01/12 05:04:47;;;;;;;20.30;8.32;;;1.50;99.90;;;;;;4872530;29;20105;-41
2024/01/12 05:07:13;;;;;;;13.30;7.63;;;1.50;99.90;;;;;;4876197;29;20053;-41
2024/01/12 05:09:39;;;;;;;17.38;7.70;;;1.50;99.90;;;;;;4869770;29;20045;-41
2024/01/12 05:12:05;;;;;;;16.15;8.35;;;1.50;99.90;;;;;;4876670;29;20045;-42
2024/01/12 05:14:32;;;;;;;18.63;7.93;;;1.50;99.90;;;;;;4876995;29;20093;-41
2024/01/12 05:16:57;;;;;;;23.52;8.75;;;1.60;99.90;;;;;;4853103;29;20055;-42
2024/01/12 05:19:23;;;;;;;14.07;7.88;;;1.50;99.90;;;;;;4874367;29;20041;-43
2024/01/12 05:21:49;;;;;;;18.20;8.00;;;1.60;99.90;;;;;;4874478;29;20084;-42
2024/01/12 05:24:16;;;;;;;20.15;8.43;;;1.50;99.90;;;;;;4875520;29;20098;-41
2024/01/12 05:26:43;;;;;;;18.70;9.00;;;1.50;99.90;;;;;;4872892;29;20546;-42
2024/01/12 05:29:08;;;;;;;15.55;7.72;;;1.50;99.90;;;;;;4868755;29;20598;-41
2024/01/12 05:31:35;;;;;;;16.77;7.85;;;1.50;99.90;;;;;;4873424;29;20044;-42
2024/01/12 05:34:00;;;;;;;16.10;7.32;;;1.50;99.90;;;;;;4873913;29;20564;-42
2024/01/12 05:36:26;;;;;;;18.75;7.85;;;1.50;99.90;;;;;;4871861;29;20125;-43
2024/01/12 05:38:51;;;;;;;16.48;9.10;;;1.50;99.90;;;;;;4874941;29;20040;-42
2024/01/12 05:41:17;;;;;;;18.70;7.97;;;1.50;99.90;;;;;;4862699;29;20433;-43
2024/01/12 05:43:43;;;;;;;15.20;8.13;;;1.50;99.90;;;;;;4870962;29;20044;-44
2024/01/12 05:46:08;;;;;;;18.58;8.35;;;1.50;99.90;;;;;;4875290;29;20435;-42
2024/01/12 05:48:34;;;;;;;18.00;8.32;;;1.50;99.90;;;;;;4871036;29;20041;-42
2024/01/12 05:51:00;;;;;;;21.60;8.48;;;1.50;99.90;;;;;;4874757;29;20068;-43
2024/01/12 05:53:25;;;;;;;17.58;8.32;;;1.50;99.90;;;;;;4866414;29;20095;-44
2024/01/12 05:55:55;;;;;;;17.85;8.32;;;1.50;99.90;;;;;;4858348;29;20315;-43
2024/01/12 05:58:20;;;;;;;16.70;8.07;;;1.50;99.90;;;;;;4868318;29;20052;-43
2024/01/12 06:00:47;;;;;;;21.88;8.23;;;1.60;99.90;;;;;;4872155;29;20088;-42
2024/01/12 06:03:13;;;;;;;15.85;7.63;;;1.60;99.90;;;;;;4875415;29;20041;-41
2024/01/12 06:05:40;;;;;;;15.93;8.05;;;1.50;99.90;;;;;;4860335;29;20052;-43
2024/01/12 06:08:05;;;;;;;15.73;7.95;;;1.50;99.90;;;;;;4874889;29;20176;-42
2024/01/12 06:10:31;;;;;;;21.30;8.02;;;1.50;99.90;;;;;;4874526;29;20427;-42
2024/01/12 06:12:57;;;;;;;18.52;7.28;;;1.50;99.90;;;;;;4868995;29;20038;-43
2024/01/12 06:15:22;;;;;;;13.68;7.78;;;1.50;99.90;;;;;;4854115;29;20045;-42
2024/01/12 06:17:48;;;;;;;17.58;8.55;;;1.50;99.90;;;;;;4871784;29;20077;-43
2024/01/12 06:20:14;;;;;;;15.73;8.00;;;1.50;99.90;;;;;;4874202;29;20519;-42
2024/01/12 06:22:40;;;;;;;19.35;7.72;;;1.60;99.90;;;;;;4870553;29;20045;-42
2024/01/12 06:25:06;;;;;;;12.68;7.25;;;1.60;99.90;;;;;;4858050;29;20041;-42
2024/01/12 06:27:31;;;;;;;17.58;7.55;;;1.60;99.90;;;;;;4882877;29;20115;-42
2024/01/12 06:29:57;;;;;;;18.15;8.15;;;1.60;99.90;;;;;;4869068;29;20045;-41
2024/01/12 06:32:22;;;;;;;21.23;7.40;;;1.60;99.90;;;;;;4869933;29;20041;-43
2024/01/12 06:34:48;;;;;;;14.77;8.23;;;1.60;99.90;;;;;;4871079;29;20072;-41
2024/01/12 06:37:14;;;;;;;15.68;7.72;;;1.60;99.90;;;;;;4874845;29;20412;-42
2024/01/12 06:39:39;;;;;;;15.88;7.47;;;1.60;99.90;;;;;;4875576;29;20567;-43
2024/01/12 06:42:05;;;;;;;14.82;7.57;;;1.60;99.90;;;;;;4875800;29;20045;-44
2024/01/12 06:44:31;;;;;;;19.70;8.35;;;1.70;99.90;;;;;;4857260;29;20041;-42
2024/01/12 06:46:56;;;;;;;16.58;7.60;;;1.70;99.90;;;;;;4876139;29;20057;-41
2024/01/12 06:49:22;;;;;;;16.27;7.50;;;1.70;99.90;;;;;;4877623;29;20070;-41
2024/01/12 06:51:48;;;;;;;17.70;7.90;;;1.70;99.90;;;;;;4878373;29;20527;-41
2024/01/12 06:54:13;;;;;;;14.82;7.38;;;1.70;99.90;;;;;;4872699;29;20045;-42
2024/01/12 06:56:39;;;;;;;16.77;8.20;;;1.70;99.90;;;;;;4871929;29;20128;-42
2024/01/12 06:59:05;;;;;;;16.45;8.68;;;1.60;99.90;;;;;;4858653;29;20096;-41
2024/01/12 07:01:31;;;;;;;16.83;8.43;;;1.60;99.90;;;;;;4873918;29;20493;-42
2024/01/12 07:03:57;;;;;;;17.80;7.80;;;1.60;99.90;;;;;;4876779;29;20052;-43
2024/01/12 07:06:22;;;;;;;16.45;8.05;;;1.60;99.90;;;;;;4871800;29;20048;-42
2024/01/12 07:08:48;;;;;;;21.85;7.75;;;1.60;99.90;;;;;;4877741;29;20132;-41
2024/01/12 07:11:14;;;;;;;14.68;7.72;;;1.60;99.90;;;;;;4874560;29;20085;-42
2024/01/12 07:13:39;;;;;;;17.40;8.15;;;1.60;99.90;;;;;;4876952;29;20056;-42
2024/01/12 07:16:05;;;;;;;20.05;8.40;;;1.60;99.90;;;;;;4868765;29;20485;-42
2024/01/12 07:18:31;;;;;;;17.80;7.97;;;1.60;99.90;;;;;;4877311;29;20075;-43
2024/01/12 07:21:02;;;;;;;17.55;8.52;;;1.60;99.90;;;;;;4875406;29;20041;-41
2024/01/12 07:23:31;;;;;;;13.48;8.00;;;1.60;99.90;;;;;;4862257;29;20523;-41
2024/01/12 07:25:58;;;;;;;22.60;8.13;;;1.60;99.90;;;;;;4852869;29;20136;-42
2024/01/12 07:28:26;;;;;;;16.65;8.70;;;1.60;99.90;;;;;;4873343;29;20735;-43
2024/01/12 07:30:53;;;;;;;21.67;9.32;;;1.60;99.90;;;;;;4861749;29;20056;-42
2024/01/12 07:33:20;;;;;;;21.63;9.80;;;1.60;99.90;;;;;;4877318;29;20048;-42
2024/01/12 07:35:46;;;;;;;18.90;8.97;;;1.60;99.90;;;;;;4872104;29;20041;-44
2024/01/12 07:38:12;;;;;;;20.40;9.40;;;1.60;99.90;;;;;;4871181;29;20052;-41
2024/01/12 07:40:37;;;;;;;18.60;9.00;;;1.60;99.90;;;;;;4874291;29;20045;-42
2024/01/12 07:43:03;;;;;;;18.75;8.98;;;1.60;99.90;;;;;;4876507;29;20045;-42
2024/01/12 07:45:29;;;;;;;17.67;8.82;;;1.60;99.90;;;;;;4877917;29;20037;-41
2024/01/12 07:47:55;;;;;;;21.27;9.35;;;1.60;99.90;;;;;;4878774;29;20084;-42
2024/01/12 07:50:20;;;;;;;17.83;8.43;;;1.70;99.90;;;;;;4876570;29;20044;-43
2024/01/12 07:52:46;;;;;;;17.45;8.75;;;1.70;99.90;;;;;;4874259;29;20056;-42
2024/01/12 07:55:12;;;;;;;26.08;8.77;;;1.70;99.90;;;;;;4876071;29;20400;-42
2024/01/12 07:57:37;;;;;;;21.17;8.63;;;1.70;99.90;;;;;;4875376;29;20033;-42
2024/01/12 08:00:04;;;;;;;18.17;8.23;;;1.70;99.90;;;;;;4870739;29;20162;-42
2024/01/12 08:02:29;;;;;;;20.27;8.45;;;1.70;99.90;;;;;;4871455;29;20462;-44
2024/01/12 08:04:55;;;;;;;16.77;8.07;;;1.70;99.90;;;;;;4877155;29;20149;-41
2024/01/12 08:07:21;;;;;;;18.38;9.07;;;1.70;99.90;;;;;;4863316;29;20255;-44
2024/01/12 08:09:46;;;;;;;17.73;7.82;;;1.80;99.90;;;;;;4874523;29;20053;-42
2024/01/12 08:12:12;;;;;;;16.27;7.55;;;1.70;99.90;;;;;;4871073;29;20416;-41
2024/01/12 08:14:37;;;;;;;14.75;7.70;;;1.80;99.90;;;;;;4876118;29;20093;-42
2024/01/12 08:17:03;;;;;;;19.50;8.20;;;1.80;99.90;;;;;;4869233;29;20877;-42
2024/01/12 08:19:28;;;;;;;16.00;8.23;;;1.80;99.90;;;;;;4871414;29;20056;-42
2024/01/12 08:21:54;;;;;;;16.80;7.93;;;1.80;99.90;;;;;;4872583;29;20492;-42
2024/01/12 08:24:20;;;;;;;17.63;8.05;;;1.80;99.90;;;;;;4859814;29;20048;-42
2024/01/12 08:26:45;;;;;;;20.15;8.25;;;1.90;99.90;;;;;;4856200;29;20044;-41
2024/01/12 08:29:11;;;;;;;16.73;8.50;;;1.90;99.90;;;;;;4871012;29;20057;-41
2024/01/12 08:31:37;;;;;;;17.35;8.27;;;1.90;99.90;;;;;;4872578;29;20049;-42
2024/01/12 08:34:02;;;;;;;15.73;7.78;;;1.90;99.90;;;;;;4871020;29;20060;-42
2024/01/12 08:36:28;;;;;;;17.48;8.27;;;1.90;99.90;;;;;;4870292;29;20044;-42
2024/01/12 08:38:54;;;;;;;16.63;8.57;;;1.90;99.90;;;;;;4870229;29;20129;-42
2024/01/12 08:41:19;;;;;;;21.92;9.02;;;1.90;99.90;;;;;;4877307;29;20052;-43
2024/01/12 08:43:45;;;;;;;19.67;9.32;;;1.90;99.90;;;;;;4873477;29;20060;-42
2024/01/12 08:46:11;;;;;;;17.90;9.30;;;2.00;99.90;;;;;;4875554;29;20055;-44
2024/01/12 08:48:36;;;;;;;19.80;9.18;;;2.00;99.90;;;;;;4870242;29;20526;-43
2024/01/12 08:51:02;;;;;;;17.08;8.85;;;2.00;99.90;;;;;;4869710;29;20061;-43
2024/01/12 08:53:27;;;;;;;19.80;9.13;;;2.00;99.90;;;;;;4873980;29;20053;-43
2024/01/12 08:55:53;;;;;;;21.38;9.10;;;2.00;99.90;;;;;;4875102;29;20049;-42
2024/01/12 08:58:19;;;;;;;19.73;8.75;;;2.00;99.90;;;;;;4876536;29;20045;-45
2024/01/12 09:00:44;;;;;;;18.02;9.32;;;2.00;99.90;;;;;;4877091;29;20057;-43
2024/01/12 09:03:10;;;;;;;21.00;9.35;;;2.10;99.90;;;;;;4877134;29;20048;-43
2024/01/12 09:05:36;;;;;;;21.40;9.63;;;2.10;99.90;;;;;;4877825;29;20055;-43
2024/01/12 09:08:04;;;;;;;15.18;9.00;;;2.10;99.90;;;;;;4876392;29;20408;-42
2024/01/12 09:10:30;;;;;;;22.27;9.80;;;2.10;99.90;;;;;;4858467;29;20052;-42
2024/01/12 09:12:55;;;;;;;23.63;9.95;;;2.10;99.90;;;;;;4874809;29;20041;-43
2024/01/12 09:15:21;;;;;;;19.98;10.00;;;2.10;99.90;;;;;;4873662;29;20059;-42
2024/01/12 09:17:47;;;;;;;20.55;10.45;;;2.20;99.90;;;;;;4875377;29;20132;-42
2024/01/12 09:20:12;;;;;;;17.00;10.23;;;2.20;99.90;;;;;;4876020;29;20048;-42
2024/01/12 09:22:38;;;;;;;23.17;10.82;;;2.20;99.90;;;;;;4875804;29;20475;-41
2024/01/12 09:25:04;;;;;;;21.00;10.57;;;2.30;99.90;;;;;;4875251;29;20039;-44
2024/01/12 09:27:30;;;;;;;17.38;10.20;;;2.20;99.90;;;;;;4875010;29;20068;-43
2024/01/12 09:29:55;;;;;;;21.50;9.98;;;2.30;99.90;;;;;;4874668;29;20077;-43
2024/01/12 09:32:22;;;;;;;19.33;10.07;;;2.30;99.90;;;;;;4875757;29;20068;-42
2024/01/12 09:34:48;;;;;;;21.23;9.90;;;2.30;99.90;;;;;;4876611;29;20072;-42
2024/01/12 09:37:14;;;;;;;19.90;10.25;;;2.40;99.90;;;;;;4873780;29;20045;-43
2024/01/12 09:39:40;;;;;;;22.67;10.25;;;;;;;;;;4874571;29;20051;-42
2024/01/12 09:42:08;;;;;;;16.52;10.27;;;2.40;99.90;;;;;;4876541;29;20132;-43
2024/01/12 09:44:37;;;;;;;17.67;9.98;;;2.40;99.90;;;;;;4876122;29;20081;-42
2024/01/12 09:47:03;;;;;;;21.83;10.10;;;2.40;99.90;;;;;;4876251;29;20092;-41
2024/01/12 09:49:30;;;;;;;17.48;9.82;;;2.50;99.90;;;;;;4871277;29;20045;-41
2024/01/12 09:51:57;;;;;;;20.05;10.13;;;2.50;99.90;;;;;;4874965;29;20076;-42
2024/01/12 09:54:23;;;;;;;22.27;10.20;;;2.50;99.90;;;;;;4877313;29;20576;-43
2024/01/12 09:56:49;;;;;;;20.08;10.18;;;2.50;99.90;;;;;;4878649;29;20128;-42
2024/01/12 09:59:16;;;;;;;23.23;10.35;;;2.60;99.90;;;;;;4875517;29;20344;-42
2024/01/12 10:01:42;;;;;;;22.20;10.57;;;2.60;99.90;;;;;;4860908;29;20052;-42
2024/01/12 10:04:08;;;;;;;21.38;10.45;;;2.60;99.90;;;;;;4877577;29;20132;-43
2024/01/12 10:06:35;;;;;;;17.20;9.60;;;;;;;;;;4876017;29;20698;-42
2024/01/12 10:09:01;;;;;;;21.02;10.30;;;2.70;99.90;;;;;;4876547;29;20081;-43
2024/01/12 10:11:27;;;;;;;23.92;10.07;;;2.70;99.90;;;;;;4875179;29;20446;-42
2024/01/12 10:13:52;;;;;;;19.67;9.32;;;2.70;99.90;;;;;;4875197;29;20045;-44
2024/01/12 10:16:18;;;;;;;18.23;9.63;;;2.80;99.90;;;;;;4879029;29;20048;-42
2024/01/12 10:18:44;;;;;;;16.77;9.88;;;2.80;99.90;;;;;;4863745;29;20052;-43
2024/01/12 10:21:09;;;;;;;18.48;10.10;;;2.80;99.90;;;;;;4876431;29;20049;-43
2024/01/12 10:23:36;;;;;;;19.20;9.77;;;2.90;99.90;;;;;;4876160;29;20084;-38
2024/01/12 10:26:04;;;;;;;21.10;9.90;;;2.90;99.90;;;;;;4879876;29;20041;-38
2024/01/12 10:28:30;;;;;;;19.75;8.98;;;2.90;99.90;;;;;;4874346;29;20056;-39
2024/01/12 10:30:56;;;;;;;21.05;9.75;;;2.90;99.90;;;;;;4872594;29;20049;-39
2024/01/12 10:33:25;;;;;;;16.38;8.82;;;2.90;99.90;;;;;;4865272;29;20428;-38
2024/01/12 10:36:20;;;;;;;19.25;9.70;;;2.90;99.90;;;;;;4882045;29;20049;-39
2024/01/12 10:38:48;;;;;;;21.73;10.32;;;3.00;99.90;;;;;;4875766;29;20096;-39
2024/01/12 10:41:16;;;;;;;21.95;9.20;;;2.90;99.90;;;;;;4862776;29;20041;-39
2024/01/12 10:43:44;;;;;;;20.35;9.85;;;3.00;99.90;;;;;;4879205;29;20047;-39
2024/01/12 10:46:12;;;;;;;17.13;9.45;;;3.00;99.90;;;;;;4881766;29;20329;-39
2024/01/12 10:48:48;;;;;;;17.07;9.17;;;3.10;99.90;;;;;;4877065;29;20461;-39
2024/01/12 10:51:21;;;;;;;19.05;9.90;;;3.10;99.90;;;;;;4876012;29;21781;-49
2024/01/12 10:54:04;;;;;;;15.80;9.30;;;3.10;99.90;;;;;;4874085;29;20100;-50
2024/01/12 10:56:32;;;;;;;15.85;9.27;;;3.20;99.90;;;;;;4881372;29;20049;-48
2024/01/12 10:58:58;;;;;;;18.48;9.77;;;3.20;99.90;;;;;;4877465;29;20400;-48
2024/01/12 11:01:24;;;;;;;20.85;9.98;;;3.20;99.90;;;;;;4873664;29;20048;-46
2024/01/12 11:03:50;;;;;;;20.70;9.27;;;3.30;99.90;;;;;;4875709;29;20045;-48
2024/01/12 11:06:18;;;;;;;20.35;8.73;;;3.30;99.90;;;;;;4874146;29;20042;-47
2024/01/12 11:08:46;;;;;;;23.53;9.90;;;3.40;99.90;;;;;;4876701;29;20625;-49
2024/01/12 11:11:15;;;;;;;22.80;9.18;;;3.40;99.90;;;;;;4880801;29;20049;-48
2024/01/12 11:13:41;;;;;;;16.05;8.52;;;3.40;99.90;;;;;;4875318;29;20503;-46
2024/01/12 11:16:08;;;;;;;20.83;9.13;;;3.50;99.90;;;;;;4874439;29;20053;-46
2024/01/12 11:18:35;;;;;;;19.27;8.95;;;3.60;99.90;;;;;;4875040;29;20072;-47
2024/01/12 11:21:04;;;;;;;21.77;9.07;;;3.70;99.90;;;;;;4882512;29;20041;-46
2024/01/12 11:23:37;;;;;;;16.15;8.55;;;3.80;99.90;;;;;;4877358;29;20052;-46
2024/01/12 11:26:03;;;;;;;17.73;8.48;;;3.90;99.90;;;;;;4880090;29;20041;-48
2024/01/12 11:28:36;;;;;;;21.85;8.50;;;3.90;99.90;;;;;;4882970;29;20056;-47
2024/01/12 11:31:02;;;;;;;19.75;9.68;;;4.00;99.90;;;;;;4875805;29;20049;-47
2024/01/12 11:33:28;;;;;;;16.35;8.35;;;4.00;99.90;;;;;;4884744;29;20145;-47
2024/01/12 11:35:54;;;;;;;20.58;8.27;;;4.10;99.90;;;;;;4880340;29;20041;-46
2024/01/12 11:38:20;;;;;;;20.88;6.97;;;4.20;99.90;;;;;;4878043;29;20041;-46
2024/01/12 11:40:48;;;;;;;22.20;7.47;;;4.20;99.90;;;;;;4869795;29;20041;-51
2024/01/12 11:43:17;;;;;;;21.45;7.80;;;4.30;99.90;;;;;;4880211;29;20053;-49
2024/01/12 11:45:44;;;;;;;17.73;6.60;;;4.30;99.90;;;;;;4878719;29;20045;-47
2024/01/12 11:48:14;;;;;;;15.85;6.75;;;4.40;99.90;;;;;;4876941;29;20052;-48
2024/01/12 11:50:43;;;;;;;16.45;6.43;;;4.50;99.90;;;;;;4880256;29;20052;-47
2024/01/12 11:53:11;;;;;;;19.08;6.20;;;4.50;99.90;;;;;;4879975;29;20057;-47
2024/01/12 11:55:39;;;;;;;17.35;6.35;;;4.50;99.90;;;;;;4876624;29;20452;-48
2024/01/12 11:58:05;;;;;;;15.82;6.38;;;4.60;99.90;;;;;;4879356;29;20048;-47
2024/01/12 12:00:30;;;;;;;21.83;7.28;;;4.50;99.90;;;;;;4875641;29;20049;-47
2024/01/12 12:02:56;;;;;;;17.35;6.82;;;4.50;99.90;;;;;;4876737;29;20073;-46
2024/01/12 12:05:22;;;;;;;17.08;7.28;;;4.50;99.90;;;;;;4875911;29;20033;-48
2024/01/12 12:07:47;;;;;;;20.67;8.00;;;4.50;99.90;;;;;;4862835;29;20108;-46
2024/01/12 12:10:13;;;;;;;20.50;7.15;;;4.60;99.90;;;;;;4878957;29;20045;-47
2024/01/12 12:12:38;;;;;;;19.23;6.90;;;4.50;99.90;;;;;;4879194;29;20041;-46
2024/01/12 12:15:06;;;;;;;19.45;6.60;;;4.60;99.90;;;;;;4877285;29;20183;-47
2024/01/12 12:17:35;;;;;;;20.58;7.13;;;4.60;99.90;;;;;;4878865;29;20456;-47
2024/01/12 12:20:01;;;;;;;20.27;6.80;;;4.60;99.90;;;;;;4877453;29;20045;-47
2024/01/12 12:22:29;;;;;;;18.33;6.63;;;4.70;99.90;;;;;;4886796;29;20431;-49
2024/01/12 12:24:55;;;;;;;21.13;6.22;;;4.80;99.90;;;;;;4878215;29;20041;-47
2024/01/12 12:27:22;;;;;;;18.50;5.80;;;4.70;99.90;;;;;;4878378;29;20102;-46
2024/01/12 12:29:49;;;;;;;16.55;5.93;;;4.80;99.90;;;;;;4876152;29;20073;-46
2024/01/12 12:32:15;;;;;;;17.25;6.82;;;4.80;99.90;;;;;;4878244;29;20405;-46
2024/01/12 12:34:43;;;;;;;18.35;5.50;;;4.80;99.90;;;;;;4875415;29;20052;-47
2024/01/12 12:37:10;;;;;;;16.13;5.32;;;4.80;99.90;;;;;;4879811;29;20101;-47
2024/01/12 12:39:37;;;;;;;18.25;6.40;;;4.90;99.90;;;;;;4866594;29;20141;-48